Terminal Aerodrome Forecast
Issued by NWS

Home | Current Version | Previous Version | Text Only | Print | Product List | Glossary On
Versions: 1 2 3 4 5 6 7 8 9 10 11 12 13 14 15 16 17 18 19 20
087
FTUS44 KLZK 301740
TAFLIT
TAF
KLIT 301740Z 3018/0118 VRB05KT P6SM SCT030
     FM302100 18010KT P6SM VCTS BKN040CB
     FM010300 VRB04KT P6SM BKN040
     FM011000 VRB03KT 5SM BR BKN025
      TEMPO 0110/0114 2SM BR OVC005
     FM011500 34005KT P6SM SCT025=

USA.gov is the U.S. government's official web portal to all federal, state and local government web resources and services.